sensor_id;sensor_type;location;lat;lon;timestamp;temperature;humidity
9118;DHT22;4594;50.994;7.126;2023-12-28T00:01:22;12.20;56.50
9118;DHT22;4594;50.994;7.126;2023-12-28T00:03:49;12.20;56.30
9118;DHT22;4594;50.994;7.126;2023-12-28T00:06:15;12.30;56.90
9118;DHT22;4594;50.994;7.126;2023-12-28T00:08:41;12.30;57.10
9118;DHT22;4594;50.994;7.126;2023-12-28T00:11:07;12.20;56.90
9118;DHT22;4594;50.994;7.126;2023-12-28T00:13:33;12.20;56.90
9118;DHT22;4594;50.994;7.126;2023-12-28T00:15:59;12.30;57.10
9118;DHT22;4594;50.994;7.126;2023-12-28T00:18:25;12.30;57.10
9118;DHT22;4594;50.994;7.126;2023-12-28T00:20:51;12.30;57.20
9118;DHT22;4594;50.994;7.126;2023-12-28T00:23:17;12.30;57.20
9118;DHT22;4594;50.994;7.126;2023-12-28T00:25:43;12.30;57.30
9118;DHT22;4594;50.994;7.126;2023-12-28T00:28:08;12.30;57.40
9118;DHT22;4594;50.994;7.126;2023-12-28T00:30:34;12.30;57.50
9118;DHT22;4594;50.994;7.126;2023-12-28T00:33:00;12.30;57.70
9118;DHT22;4594;50.994;7.126;2023-12-28T00:35:26;12.30;57.70
9118;DHT22;4594;50.994;7.126;2023-12-28T00:37:51;12.30;58.00
9118;DHT22;4594;50.994;7.126;2023-12-28T00:40:17;12.30;58.00
9118;DHT22;4594;50.994;7.126;2023-12-28T00:42:43;12.30;58.10
9118;DHT22;4594;50.994;7.126;2023-12-28T00:45:09;12.30;58.20
9118;DHT22;4594;50.994;7.126;2023-12-28T00:47:37;12.40;58.40
9118;DHT22;4594;50.994;7.126;2023-12-28T00:50:03;12.30;58.50
9118;DHT22;4594;50.994;7.126;2023-12-28T00:52:29;12.30;58.50
9118;DHT22;4594;50.994;7.126;2023-12-28T00:54:55;12.30;58.70
9118;DHT22;4594;50.994;7.126;2023-12-28T00:57:21;12.30;58.80
9118;DHT22;4594;50.994;7.126;2023-12-28T00:59:46;12.30;58.90
9118;DHT22;4594;50.994;7.126;2023-12-28T01:02:12;12.30;59.10
9118;DHT22;4594;50.994;7.126;2023-12-28T01:04:38;12.30;59.10
9118;DHT22;4594;50.994;7.126;2023-12-28T01:07:04;12.40;59.20
9118;DHT22;4594;50.994;7.126;2023-12-28T01:09:31;12.50;59.20
9118;DHT22;4594;50.994;7.126;2023-12-28T01:12:00;12.40;59.30
9118;DHT22;4594;50.994;7.126;2023-12-28T01:14:25;12.40;59.30
9118;DHT22;4594;50.994;7.126;2023-12-28T01:16:51;12.40;59.40
9118;DHT22;4594;50.994;7.126;2023-12-28T01:19:17;12.40;59.40
9118;DHT22;4594;50.994;7.126;2023-12-28T01:21:42;12.60;59.70
9118;DHT22;4594;50.994;7.126;2023-12-28T01:24:08;12.40;59.60
9118;DHT22;4594;50.994;7.126;2023-12-28T01:26:34;12.50;59.60
9118;DHT22;4594;50.994;7.126;2023-12-28T01:29:00;12.50;59.70
9118;DHT22;4594;50.994;7.126;2023-12-28T01:31:29;12.50;59.70
9118;DHT22;4594;50.994;7.126;2023-12-28T01:33:55;12.50;59.70
9118;DHT22;4594;50.994;7.126;2023-12-28T01:36:21;12.50;59.60
9118;DHT22;4594;50.994;7.126;2023-12-28T01:38:48;12.50;59.60
9118;DHT22;4594;50.994;7.126;2023-12-28T01:41:14;12.50;59.50
9118;DHT22;4594;50.994;7.126;2023-12-28T01:43:44;12.50;59.60
9118;DHT22;4594;50.994;7.126;2023-12-28T01:46:17;12.50;59.00
9118;DHT22;4594;50.994;7.126;2023-12-28T01:48:45;12.50;58.60
9118;DHT22;4594;50.994;7.126;2023-12-28T01:51:14;12.60;59.50
9118;DHT22;4594;50.994;7.126;2023-12-28T01:53:45;12.50;59.40
9118;DHT22;4594;50.994;7.126;2023-12-28T01:56:13;12.50;58.60
9118;DHT22;4594;50.994;7.126;2023-12-28T01:58:41;12.60;59.70
9118;DHT22;4594;50.994;7.126;2023-12-28T02:01:10;12.60;59.40
9118;DHT22;4594;50.994;7.126;2023-12-28T02:03:36;12.60;59.50
9118;DHT22;4594;50.994;7.126;2023-12-28T02:06:03;12.50;59.60
9118;DHT22;4594;50.994;7.126;2023-12-28T02:08:31;12.60;59.70
9118;DHT22;4594;50.994;7.126;2023-12-28T02:10:57;12.50;59.70
9118;DHT22;4594;50.994;7.126;2023-12-28T02:13:24;12.50;59.60
9118;DHT22;4594;50.994;7.126;2023-12-28T02:16:22;12.70;59.80
9118;DHT22;4594;50.994;7.126;2023-12-28T02:18:54;12.60;57.50
9118;DHT22;4594;50.994;7.126;2023-12-28T02:21:22;12.60;59.50
9118;DHT22;4594;50.994;7.126;2023-12-28T02:23:50;12.70;59.90
9118;DHT22;4594;50.994;7.126;2023-12-28T02:26:19;12.70;59.90
9118;DHT22;4594;50.994;7.126;2023-12-28T02:28:47;12.70;59.20
9118;DHT22;4594;50.994;7.126;2023-12-28T02:31:21;12.70;59.10
9118;DHT22;4594;50.994;7.126;2023-12-28T02:34:11;12.60;58.50
9118;DHT22;4594;50.994;7.126;2023-12-28T02:36:44;12.60;58.40
9118;DHT22;4594;50.994;7.126;2023-12-28T02:39:14;12.60;59.20
9118;DHT22;4594;50.994;7.126;2023-12-28T02:41:43;12.60;59.60
9118;DHT22;4594;50.994;7.126;2023-12-28T02:44:10;12.60;59.60
9118;DHT22;4594;50.994;7.126;2023-12-28T02:46:36;12.60;59.80
9118;DHT22;4594;50.994;7.126;2023-12-28T02:49:01;12.70;59.90
9118;DHT22;4594;50.994;7.126;2023-12-28T02:51:27;12.60;59.80
9118;DHT22;4594;50.994;7.126;2023-12-28T02:53:52;12.60;59.90
9118;DHT22;4594;50.994;7.126;2023-12-28T02:56:18;12.80;60.10
9118;DHT22;4594;50.994;7.126;2023-12-28T02:58:44;12.80;59.90
9118;DHT22;4594;50.994;7.126;2023-12-28T03:01:09;12.80;59.90
9118;DHT22;4594;50.994;7.126;2023-12-28T03:03:35;12.60;59.60
9118;DHT22;4594;50.994;7.126;2023-12-28T03:06:01;12.70;59.70
9118;DHT22;4594;50.994;7.126;2023-12-28T03:08:26;12.60;59.70
9118;DHT22;4594;50.994;7.126;2023-12-28T03:10:52;12.80;59.90
9118;DHT22;4594;50.994;7.126;2023-12-28T03:13:20;12.70;59.90
9118;DHT22;4594;50.994;7.126;2023-12-28T03:15:46;12.70;59.90
9118;DHT22;4594;50.994;7.126;2023-12-28T03:18:11;12.60;59.80
9118;DHT22;4594;50.994;7.126;2023-12-28T03:20:37;12.70;59.80
9118;DHT22;4594;50.994;7.126;2023-12-28T03:23:03;12.70;60.00
9118;DHT22;4594;50.994;7.126;2023-12-28T03:25:28;12.70;59.90
9118;DHT22;4594;50.994;7.126;2023-12-28T03:27:54;12.70;59.80
9118;DHT22;4594;50.994;7.126;2023-12-28T03:30:20;12.60;59.70
9118;DHT22;4594;50.994;7.126;2023-12-28T03:32:46;12.70;59.70
9118;DHT22;4594;50.994;7.126;2023-12-28T03:35:11;12.80;59.70
9118;DHT22;4594;50.994;7.126;2023-12-28T03:37:37;12.60;59.60
9118;DHT22;4594;50.994;7.126;2023-12-28T03:40:03;12.60;59.60
9118;DHT22;4594;50.994;7.126;2023-12-28T03:42:30;12.60;59.50
9118;DHT22;4594;50.994;7.126;2023-12-28T03:44:55;12.60;59.50
9118;DHT22;4594;50.994;7.126;2023-12-28T03:47:21;12.70;59.60
9118;DHT22;4594;50.994;7.126;2023-12-28T03:49:48;12.60;59.60
9118;DHT22;4594;50.994;7.126;2023-12-28T03:52:14;12.70;59.60
9118;DHT22;4594;50.994;7.126;2023-12-28T03:54:39;12.60;59.40
9118;DHT22;4594;50.994;7.126;2023-12-28T03:57:05;12.50;59.20
9118;DHT22;4594;50.994;7.126;2023-12-28T03:59:31;12.50;59.10
9118;DHT22;4594;50.994;7.126;2023-12-28T04:01:56;12.50;58.80
9118;DHT22;4594;50.994;7.126;2023-12-28T04:04:22;12.50;58.60
9118;DHT22;4594;50.994;7.126;2023-12-28T04:06:48;12.40;58.30
9118;DHT22;4594;50.994;7.126;2023-12-28T04:09:14;12.50;58.30
9118;DHT22;4594;50.994;7.126;2023-12-28T04:11:40;12.40;58.10
9118;DHT22;4594;50.994;7.126;2023-12-28T04:14:05;12.30;58.00
9118;DHT22;4594;50.994;7.126;2023-12-28T04:16:31;12.20;57.90
9118;DHT22;4594;50.994;7.126;2023-12-28T04:18:57;12.10;57.80
9118;DHT22;4594;50.994;7.126;2023-12-28T04:21:22;12.50;58.20
9118;DHT22;4594;50.994;7.126;2023-12-28T04:23:48;12.10;57.90
9118;DHT22;4594;50.994;7.126;2023-12-28T04:26:17;12.10;57.90
9118;DHT22;4594;50.994;7.126;2023-12-28T04:28:43;12.00;57.90
9118;DHT22;4594;50.994;7.126;2023-12-28T04:31:09;12.00;57.80
9118;DHT22;4594;50.994;7.126;2023-12-28T04:33:34;11.90;57.90
9118;DHT22;4594;50.994;7.126;2023-12-28T04:36:04;12.10;58.10
9118;DHT22;4594;50.994;7.126;2023-12-28T04:38:30;11.90;57.90
9118;DHT22;4594;50.994;7.126;2023-12-28T04:40:57;11.80;58.00
9118;DHT22;4594;50.994;7.126;2023-12-28T04:43:24;11.90;58.20
9118;DHT22;4594;50.994;7.126;2023-12-28T04:45:50;11.70;58.00
9118;DHT22;4594;50.994;7.126;2023-12-28T04:48:16;11.70;58.00
9118;DHT22;4594;50.994;7.126;2023-12-28T04:50:47;11.70;58.20
9118;DHT22;4594;50.994;7.126;2023-12-28T04:53:13;11.70;58.20
9118;DHT22;4594;50.994;7.126;2023-12-28T04:55:39;11.70;58.30
9118;DHT22;4594;50.994;7.126;2023-12-28T04:58:05;11.60;58.30
9118;DHT22;4594;50.994;7.126;2023-12-28T05:00:30;11.70;58.50
9118;DHT22;4594;50.994;7.126;2023-12-28T05:02:56;11.70;58.60
9118;DHT22;4594;50.994;7.126;2023-12-28T05:05:21;11.60;58.60
9118;DHT22;4594;50.994;7.126;2023-12-28T05:07:47;11.80;58.80
9118;DHT22;4594;50.994;7.126;2023-12-28T05:10:13;11.60;58.60
9118;DHT22;4594;50.994;7.126;2023-12-28T05:12:39;11.60;58.70
9118;DHT22;4594;50.994;7.126;2023-12-28T05:15:05;11.60;58.80
9118;DHT22;4594;50.994;7.126;2023-12-28T05:17:30;11.50;58.70
9118;DHT22;4594;50.994;7.126;2023-12-28T05:19:56;11.50;58.70
9118;DHT22;4594;50.994;7.126;2023-12-28T05:22:22;11.50;58.80
9118;DHT22;4594;50.994;7.126;2023-12-28T05:24:48;11.50;58.70
9118;DHT22;4594;50.994;7.126;2023-12-28T05:27:13;11.50;58.80
9118;DHT22;4594;50.994;7.126;2023-12-28T05:29:39;11.70;59.10
9118;DHT22;4594;50.994;7.126;2023-12-28T05:32:05;11.50;58.80
9118;DHT22;4594;50.994;7.126;2023-12-28T05:34:31;11.50;58.70
9118;DHT22;4594;50.994;7.126;2023-12-28T05:36:57;11.40;58.70
9118;DHT22;4594;50.994;7.126;2023-12-28T05:39:22;11.50;58.70
9118;DHT22;4594;50.994;7.126;2023-12-28T05:41:48;11.40;58.50
9118;DHT22;4594;50.994;7.126;2023-12-28T05:44:16;11.40;58.50
9118;DHT22;4594;50.994;7.126;2023-12-28T05:46:42;11.40;58.50
9118;DHT22;4594;50.994;7.126;2023-12-28T05:49:08;11.40;58.60
9118;DHT22;4594;50.994;7.126;2023-12-28T05:51:40;11.40;58.50
9118;DHT22;4594;50.994;7.126;2023-12-28T05:54:07;11.40;57.50
9118;DHT22;4594;50.994;7.126;2023-12-28T05:56:33;11.40;58.50
9118;DHT22;4594;50.994;7.126;2023-12-28T05:58:59;11.30;58.50
9118;DHT22;4594;50.994;7.126;2023-12-28T06:01:24;11.30;58.50
9118;DHT22;4594;50.994;7.126;2023-12-28T06:03:50;11.30;58.60
9118;DHT22;4594;50.994;7.126;2023-12-28T06:06:18;11.30;59.20
9118;DHT22;4594;50.994;7.126;2023-12-28T06:08:44;11.30;59.10
9118;DHT22;4594;50.994;7.126;2023-12-28T06:11:10;11.50;59.40
9118;DHT22;4594;50.994;7.126;2023-12-28T06:13:36;11.40;59.30
9118;DHT22;4594;50.994;7.126;2023-12-28T06:16:02;11.40;59.30
9118;DHT22;4594;50.994;7.126;2023-12-28T06:18:28;11.40;59.30
9118;DHT22;4594;50.994;7.126;2023-12-28T06:20:53;11.40;59.30
9118;DHT22;4594;50.994;7.126;2023-12-28T06:23:19;11.40;59.20
9118;DHT22;4594;50.994;7.126;2023-12-28T06:25:44;11.40;59.30
9118;DHT22;4594;50.994;7.126;2023-12-28T06:28:10;11.40;59.20
9118;DHT22;4594;50.994;7.126;2023-12-28T06:30:36;11.40;59.20
9118;DHT22;4594;50.994;7.126;2023-12-28T06:33:02;11.40;59.30
9118;DHT22;4594;50.994;7.126;2023-12-28T06:35:27;11.40;59.30
9118;DHT22;4594;50.994;7.126;2023-12-28T06:37:53;11.40;59.20
9118;DHT22;4594;50.994;7.126;2023-12-28T06:40:19;11.40;59.10
9118;DHT22;4594;50.994;7.126;2023-12-28T06:42:44;11.40;59.20
9118;DHT22;4594;50.994;7.126;2023-12-28T06:45:10;11.40;59.20
9118;DHT22;4594;50.994;7.126;2023-12-28T06:47:36;11.50;59.10
9118;DHT22;4594;50.994;7.126;2023-12-28T06:50:02;11.60;59.20
9118;DHT22;4594;50.994;7.126;2023-12-28T06:52:28;11.50;59.10
9118;DHT22;4594;50.994;7.126;2023-12-28T06:54:56;11.50;59.10
9118;DHT22;4594;50.994;7.126;2023-12-28T06:57:22;11.50;59.10
9118;DHT22;4594;50.994;7.126;2023-12-28T06:59:48;11.40;59.00
9118;DHT22;4594;50.994;7.126;2023-12-28T07:02:14;11.40;59.00
9118;DHT22;4594;50.994;7.126;2023-12-28T07:04:39;11.50;59.10
9118;DHT22;4594;50.994;7.126;2023-12-28T07:07:05;11.40;59.10
9118;DHT22;4594;50.994;7.126;2023-12-28T07:09:31;11.50;59.30
9118;DHT22;4594;50.994;7.126;2023-12-28T07:11:56;11.50;59.40
9118;DHT22;4594;50.994;7.126;2023-12-28T07:14:22;11.70;59.60
9118;DHT22;4594;50.994;7.126;2023-12-28T07:16:48;11.50;59.50
9118;DHT22;4594;50.994;7.126;2023-12-28T07:19:13;11.50;59.50
9118;DHT22;4594;50.994;7.126;2023-12-28T07:21:39;11.60;59.70
9118;DHT22;4594;50.994;7.126;2023-12-28T07:24:05;11.60;59.80
9118;DHT22;4594;50.994;7.126;2023-12-28T07:26:31;11.60;60.10
9118;DHT22;4594;50.994;7.126;2023-12-28T07:28:56;11.60;59.80
9118;DHT22;4594;50.994;7.126;2023-12-28T07:31:26;11.70;59.70
9118;DHT22;4594;50.994;7.126;2023-12-28T07:33:53;11.70;58.90
9118;DHT22;4594;50.994;7.126;2023-12-28T07:36:19;11.70;59.60
9118;DHT22;4594;50.994;7.126;2023-12-28T07:38:46;12.00;60.20
9118;DHT22;4594;50.994;7.126;2023-12-28T07:41:11;11.70;59.50
9118;DHT22;4594;50.994;7.126;2023-12-28T07:43:37;11.70;59.60
9118;DHT22;4594;50.994;7.126;2023-12-28T07:46:03;11.80;59.70
9118;DHT22;4594;50.994;7.126;2023-12-28T07:48:30;11.80;59.70
9118;DHT22;4594;50.994;7.126;2023-12-28T07:50:57;11.80;59.50
9118;DHT22;4594;50.994;7.126;2023-12-28T07:53:23;11.80;59.70
9118;DHT22;4594;50.994;7.126;2023-12-28T07:55:49;11.80;59.70
9118;DHT22;4594;50.994;7.126;2023-12-28T07:58:15;11.80;59.90
9118;DHT22;4594;50.994;7.126;2023-12-28T08:00:41;11.90;59.80
9118;DHT22;4594;50.994;7.126;2023-12-28T08:03:06;11.90;59.80
9118;DHT22;4594;50.994;7.126;2023-12-28T08:05:32;12.00;59.90
9118;DHT22;4594;50.994;7.126;2023-12-28T08:07:58;12.00;59.90
9118;DHT22;4594;50.994;7.126;2023-12-28T08:10:23;12.00;59.90
9118;DHT22;4594;50.994;7.126;2023-12-28T08:12:49;12.00;59.90
9118;DHT22;4594;50.994;7.126;2023-12-28T08:15:14;12.00;60.20
9118;DHT22;4594;50.994;7.126;2023-12-28T08:17:40;12.10;60.10
9118;DHT22;4594;50.994;7.126;2023-12-28T08:20:06;12.10;60.10
9118;DHT22;4594;50.994;7.126;2023-12-28T08:22:32;12.10;60.10
9118;DHT22;4594;50.994;7.126;2023-12-28T08:24:58;12.20;60.20
9118;DHT22;4594;50.994;7.126;2023-12-28T08:27:24;12.20;60.20
9118;DHT22;4594;50.994;7.126;2023-12-28T08:29:50;12.20;60.20
9118;DHT22;4594;50.994;7.126;2023-12-28T08:32:15;12.20;60.10
9118;DHT22;4594;50.994;7.126;2023-12-28T08:34:42;12.30;60.20
9118;DHT22;4594;50.994;7.126;2023-12-28T08:37:08;12.30;60.30
9118;DHT22;4594;50.994;7.126;2023-12-28T08:39:34;12.30;60.30
9118;DHT22;4594;50.994;7.126;2023-12-28T08:42:00;12.30;60.20
9118;DHT22;4594;50.994;7.126;2023-12-28T08:44:26;12.40;60.10
9118;DHT22;4594;50.994;7.126;2023-12-28T08:46:52;12.40;60.00
9118;DHT22;4594;50.994;7.126;2023-12-28T08:49:17;12.50;60.00
9118;DHT22;4594;50.994;7.126;2023-12-28T08:51:43;12.50;60.00
9118;DHT22;4594;50.994;7.126;2023-12-28T08:54:09;12.40;59.80
9118;DHT22;4594;50.994;7.126;2023-12-28T08:56:35;12.40;59.60
9118;DHT22;4594;50.994;7.126;2023-12-28T08:59:01;12.50;59.80
9118;DHT22;4594;50.994;7.126;2023-12-28T09:01:27;12.50;59.90
9118;DHT22;4594;50.994;7.126;2023-12-28T09:03:55;12.50;60.10
9118;DHT22;4594;50.994;7.126;2023-12-28T09:06:21;12.50;60.20
9118;DHT22;4594;50.994;7.126;2023-12-28T09:08:49;12.80;60.50
9118;DHT22;4594;50.994;7.126;2023-12-28T09:11:17;12.70;59.90
9118;DHT22;4594;50.994;7.126;2023-12-28T09:13:44;12.60;60.20
9118;DHT22;4594;50.994;7.126;2023-12-28T09:16:11;12.60;60.20
9118;DHT22;4594;50.994;7.126;2023-12-28T09:18:38;12.70;59.90
9118;DHT22;4594;50.994;7.126;2023-12-28T09:21:06;12.70;59.90
9118;DHT22;4594;50.994;7.126;2023-12-28T09:23:33;12.70;59.90
9118;DHT22;4594;50.994;7.126;2023-12-28T09:26:04;12.70;59.80
9118;DHT22;4594;50.994;7.126;2023-12-28T09:28:31;12.80;59.70
9118;DHT22;4594;50.994;7.126;2023-12-28T09:30:58;12.80;60.10
9118;DHT22;4594;50.994;7.126;2023-12-28T09:33:23;12.80;60.30
9118;DHT22;4594;50.994;7.126;2023-12-28T09:35:49;12.80;60.30
9118;DHT22;4594;50.994;7.126;2023-12-28T09:38:15;12.90;60.40
9118;DHT22;4594;50.994;7.126;2023-12-28T09:40:42;13.00;60.60
9118;DHT22;4594;50.994;7.126;2023-12-28T09:43:31;12.90;60.80
9118;DHT22;4594;50.994;7.126;2023-12-28T09:46:07;13.00;58.30
9118;DHT22;4594;50.994;7.126;2023-12-28T09:48:33;13.10;60.40
9118;DHT22;4594;50.994;7.126;2023-12-28T09:51:00;13.20;61.90
9118;DHT22;4594;50.994;7.126;2023-12-28T09:53:26;13.20;62.00
9118;DHT22;4594;50.994;7.126;2023-12-28T09:55:52;13.20;62.00
9118;DHT22;4594;50.994;7.126;2023-12-28T09:58:19;13.30;62.10
9118;DHT22;4594;50.994;7.126;2023-12-28T10:00:49;13.40;62.50
9118;DHT22;4594;50.994;7.126;2023-12-28T10:03:16;13.60;63.10
9118;DHT22;4594;50.994;7.126;2023-12-28T10:05:43;13.70;64.20
9118;DHT22;4594;50.994;7.126;2023-12-28T10:08:14;13.90;64.60
9118;DHT22;4594;50.994;7.126;2023-12-28T10:10:42;14.00;62.80
9118;DHT22;4594;50.994;7.126;2023-12-28T10:13:09;14.10;63.80
9118;DHT22;4594;50.994;7.126;2023-12-28T10:15:36;14.30;63.90
9118;DHT22;4594;50.994;7.126;2023-12-28T10:18:05;14.40;64.00
9118;DHT22;4594;50.994;7.126;2023-12-28T10:20:32;14.50;64.30
9118;DHT22;4594;50.994;7.126;2023-12-28T10:22:58;14.60;64.00
9118;DHT22;4594;50.994;7.126;2023-12-28T10:25:25;14.80;63.70
9118;DHT22;4594;50.994;7.126;2023-12-28T10:27:51;15.00;63.80
9118;DHT22;4594;50.994;7.126;2023-12-28T10:30:19;15.00;63.70
9118;DHT22;4594;50.994;7.126;2023-12-28T10:32:45;15.10;63.90
9118;DHT22;4594;50.994;7.126;2023-12-28T10:35:11;15.20;63.50
9118;DHT22;4594;50.994;7.126;2023-12-28T10:37:39;15.30;63.10
9118;DHT22;4594;50.994;7.126;2023-12-28T10:40:07;15.40;62.30
9118;DHT22;4594;50.994;7.126;2023-12-28T10:42:54;15.50;63.20
9118;DHT22;4594;50.994;7.126;2023-12-28T10:45:28;15.70;59.20
9118;DHT22;4594;50.994;7.126;2023-12-28T10:48:08;15.70;61.10
9118;DHT22;4594;50.994;7.126;2023-12-28T10:50:47;15.80;58.20
9118;DHT22;4594;50.994;7.126;2023-12-28T10:53:37;15.90;57.20
9118;DHT22;4594;50.994;7.126;2023-12-28T10:57:05;15.90;56.90
9118;DHT22;4594;50.994;7.126;2023-12-28T10:59:16;16.00;57.30
9118;DHT22;4594;50.994;7.126;2023-12-28T11:01:51;16.00;59.60
9118;DHT22;4594;50.994;7.126;2023-12-28T11:06:54;16.00;58.90
9118;DHT22;4594;50.994;7.126;2023-12-28T11:09:22;16.00;58.70
9118;DHT22;4594;50.994;7.126;2023-12-28T11:11:51;16.00;58.70
9118;DHT22;4594;50.994;7.126;2023-12-28T11:14:19;16.00;58.50
9118;DHT22;4594;50.994;7.126;2023-12-28T11:16:46;16.00;58.50
9118;DHT22;4594;50.994;7.126;2023-12-28T11:19:13;15.90;58.60
9118;DHT22;4594;50.994;7.126;2023-12-28T11:21:39;16.00;58.50
9118;DHT22;4594;50.994;7.126;2023-12-28T11:24:06;16.00;58.40
9118;DHT22;4594;50.994;7.126;2023-12-28T11:26:32;16.00;58.30
9118;DHT22;4594;50.994;7.126;2023-12-28T11:29:02;16.10;58.10
9118;DHT22;4594;50.994;7.126;2023-12-28T11:31:32;16.10;56.20
9118;DHT22;4594;50.994;7.126;2023-12-28T11:34:01;16.00;56.50
9118;DHT22;4594;50.994;7.126;2023-12-28T11:37:12;16.00;57.40
9118;DHT22;4594;50.994;7.126;2023-12-28T11:39:33;16.00;55.40
9118;DHT22;4594;50.994;7.126;2023-12-28T11:42:04;16.00;57.50
9118;DHT22;4594;50.994;7.126;2023-12-28T11:44:43;16.10;57.20
9118;DHT22;4594;50.994;7.126;2023-12-28T11:47:14;16.10;55.30
9118;DHT22;4594;50.994;7.126;2023-12-28T11:49:41;16.10;56.20
9118;DHT22;4594;50.994;7.126;2023-12-28T11:52:08;16.10;57.60
9118;DHT22;4594;50.994;7.126;2023-12-28T11:54:36;16.20;57.40
9118;DHT22;4594;50.994;7.126;2023-12-28T11:57:02;16.10;57.30
9118;DHT22;4594;50.994;7.126;2023-12-28T11:59:28;16.10;57.20
9118;DHT22;4594;50.994;7.126;2023-12-28T12:01:54;16.10;56.90
9118;DHT22;4594;50.994;7.126;2023-12-28T12:04:20;16.10;56.90
9118;DHT22;4594;50.994;7.126;2023-12-28T12:06:47;16.10;56.80
9118;DHT22;4594;50.994;7.126;2023-12-28T12:09:14;16.10;56.80
9118;DHT22;4594;50.994;7.126;2023-12-28T12:11:40;16.10;56.40
9118;DHT22;4594;50.994;7.126;2023-12-28T12:14:11;16.10;56.70
9118;DHT22;4594;50.994;7.126;2023-12-28T12:16:37;16.10;54.80
9118;DHT22;4594;50.994;7.126;2023-12-28T12:19:06;16.10;56.90
9118;DHT22;4594;50.994;7.126;2023-12-28T12:21:33;16.00;55.80
9118;DHT22;4594;50.994;7.126;2023-12-28T12:23:59;16.10;56.80
9118;DHT22;4594;50.994;7.126;2023-12-28T12:26:28;16.00;56.60
9118;DHT22;4594;50.994;7.126;2023-12-28T12:28:55;16.10;56.50
9118;DHT22;4594;50.994;7.126;2023-12-28T12:31:21;16.00;56.20
9118;DHT22;4594;50.994;7.126;2023-12-28T12:33:47;16.00;56.20
9118;DHT22;4594;50.994;7.126;2023-12-28T12:36:13;16.00;56.30
9118;DHT22;4594;50.994;7.126;2023-12-28T12:38:40;16.00;56.50
9118;DHT22;4594;50.994;7.126;2023-12-28T12:41:05;16.00;56.60
9118;DHT22;4594;50.994;7.126;2023-12-28T12:43:33;16.00;56.60
9118;DHT22;4594;50.994;7.126;2023-12-28T12:45:59;16.00;56.10
9118;DHT22;4594;50.994;7.126;2023-12-28T12:48:26;16.00;55.80
9118;DHT22;4594;50.994;7.126;2023-12-28T12:50:51;16.00;55.30
9118;DHT22;4594;50.994;7.126;2023-12-28T12:53:17;16.00;55.20
9118;DHT22;4594;50.994;7.126;2023-12-28T12:55:43;15.90;55.00
9118;DHT22;4594;50.994;7.126;2023-12-28T12:58:11;15.90;54.90
9118;DHT22;4594;50.994;7.126;2023-12-28T13:00:41;16.30;55.20
9118;DHT22;4594;50.994;7.126;2023-12-28T13:03:09;15.80;54.50
9118;DHT22;4594;50.994;7.126;2023-12-28T13:05:36;15.70;53.70
9118;DHT22;4594;50.994;7.126;2023-12-28T13:08:03;15.80;54.60
9118;DHT22;4594;50.994;7.126;2023-12-28T13:10:31;15.60;54.70
9118;DHT22;4594;50.994;7.126;2023-12-28T13:12:56;15.70;54.70
9118;DHT22;4594;50.994;7.126;2023-12-28T13:15:22;15.70;54.70
9118;DHT22;4594;50.994;7.126;2023-12-28T13:17:48;15.60;54.70
9118;DHT22;4594;50.994;7.126;2023-12-28T13:20:13;15.50;54.70
9118;DHT22;4594;50.994;7.126;2023-12-28T13:22:40;15.50;54.80
9118;DHT22;4594;50.994;7.126;2023-12-28T13:25:06;15.50;54.90
9118;DHT22;4594;50.994;7.126;2023-12-28T13:27:32;15.40;54.80
9118;DHT22;4594;50.994;7.126;2023-12-28T13:29:58;15.40;54.60
9118;DHT22;4594;50.994;7.126;2023-12-28T13:32:23;15.40;54.60
9118;DHT22;4594;50.994;7.126;2023-12-28T13:34:49;15.40;54.60
9118;DHT22;4594;50.994;7.126;2023-12-28T13:37:16;15.30;54.40
9118;DHT22;4594;50.994;7.126;2023-12-28T13:39:43;15.30;54.30
9118;DHT22;4594;50.994;7.126;2023-12-28T13:42:09;15.30;54.30
9118;DHT22;4594;50.994;7.126;2023-12-28T13:44:35;15.30;54.30
9118;DHT22;4594;50.994;7.126;2023-12-28T13:47:01;15.20;54.10
9118;DHT22;4594;50.994;7.126;2023-12-28T13:49:28;15.30;54.30
9118;DHT22;4594;50.994;7.126;2023-12-28T13:51:54;15.10;54.00
9118;DHT22;4594;50.994;7.126;2023-12-28T13:54:20;15.10;54.10
9118;DHT22;4594;50.994;7.126;2023-12-28T13:56:46;15.10;53.90
9118;DHT22;4594;50.994;7.126;2023-12-28T13:59:13;15.20;53.90
9118;DHT22;4594;50.994;7.126;2023-12-28T14:01:40;15.00;53.60
9118;DHT22;4594;50.994;7.126;2023-12-28T14:04:06;15.00;53.70
9118;DHT22;4594;50.994;7.126;2023-12-28T14:06:32;15.00;53.70
9118;DHT22;4594;50.994;7.126;2023-12-28T14:08:58;14.80;53.50
9118;DHT22;4594;50.994;7.126;2023-12-28T14:11:24;14.80;53.40
9118;DHT22;4594;50.994;7.126;2023-12-28T14:13:50;14.70;53.30
9118;DHT22;4594;50.994;7.126;2023-12-28T14:16:16;14.60;53.50
9118;DHT22;4594;50.994;7.126;2023-12-28T14:18:41;14.70;53.70
9118;DHT22;4594;50.994;7.126;2023-12-28T14:21:10;14.70;53.60
9118;DHT22;4594;50.994;7.126;2023-12-28T14:23:38;14.70;52.70
9118;DHT22;4594;50.994;7.126;2023-12-28T14:26:12;14.50;53.40
9118;DHT22;4594;50.994;7.126;2023-12-28T14:28:41;14.50;51.90
9118;DHT22;4594;50.994;7.126;2023-12-28T14:31:09;14.50;53.80
9118;DHT22;4594;50.994;7.126;2023-12-28T14:33:35;14.40;53.20
9118;DHT22;4594;50.994;7.126;2023-12-28T14:36:02;14.40;53.40
9118;DHT22;4594;50.994;7.126;2023-12-28T14:38:29;14.30;53.40
9118;DHT22;4594;50.994;7.126;2023-12-28T14:40:55;14.20;53.40
9118;DHT22;4594;50.994;7.126;2023-12-28T14:43:21;14.20;53.40
9118;DHT22;4594;50.994;7.126;2023-12-28T14:45:47;14.20;53.30
9118;DHT22;4594;50.994;7.126;2023-12-28T14:48:13;14.10;53.30
9118;DHT22;4594;50.994;7.126;2023-12-28T14:50:38;14.10;53.30
9118;DHT22;4594;50.994;7.126;2023-12-28T14:53:04;14.10;53.30
9118;DHT22;4594;50.994;7.126;2023-12-28T14:55:30;14.00;53.20
9118;DHT22;4594;50.994;7.126;2023-12-28T14:57:55;14.10;53.30
9118;DHT22;4594;50.994;7.126;2023-12-28T15:00:21;14.10;53.40
9118;DHT22;4594;50.994;7.126;2023-12-28T15:02:49;13.90;53.10
9118;DHT22;4594;50.994;7.126;2023-12-28T15:05:14;13.90;52.90
9118;DHT22;4594;50.994;7.126;2023-12-28T15:07:40;13.80;53.20
9118;DHT22;4594;50.994;7.126;2023-12-28T15:10:07;13.80;53.30
9118;DHT22;4594;50.994;7.126;2023-12-28T15:12:34;13.70;53.20
9118;DHT22;4594;50.994;7.126;2023-12-28T15:15:00;13.70;53.30
9118;DHT22;4594;50.994;7.126;2023-12-28T15:17:26;13.70;53.50
9118;DHT22;4594;50.994;7.126;2023-12-28T15:19:52;13.60;53.40
9118;DHT22;4594;50.994;7.126;2023-12-28T15:22:18;13.60;53.50
9118;DHT22;4594;50.994;7.126;2023-12-28T15:24:44;13.60;53.50
9118;DHT22;4594;50.994;7.126;2023-12-28T15:27:10;13.50;53.40
9118;DHT22;4594;50.994;7.126;2023-12-28T15:29:36;13.60;53.60
9118;DHT22;4594;50.994;7.126;2023-12-28T15:32:02;13.70;53.70
9118;DHT22;4594;50.994;7.126;2023-12-28T15:34:29;13.40;53.40
9118;DHT22;4594;50.994;7.126;2023-12-28T15:36:55;13.40;53.60
9118;DHT22;4594;50.994;7.126;2023-12-28T15:39:20;13.40;53.60
9118;DHT22;4594;50.994;7.126;2023-12-28T15:41:46;13.40;53.60
9118;DHT22;4594;50.994;7.126;2023-12-28T15:44:12;13.40;53.60
9118;DHT22;4594;50.994;7.126;2023-12-28T15:46:40;13.30;53.60
9118;DHT22;4594;50.994;7.126;2023-12-28T15:49:06;13.20;53.40
9118;DHT22;4594;50.994;7.126;2023-12-28T15:51:32;13.20;53.60
9118;DHT22;4594;50.994;7.126;2023-12-28T15:53:57;13.20;53.60
9118;DHT22;4594;50.994;7.126;2023-12-28T15:56:23;13.30;53.80
9118;DHT22;4594;50.994;7.126;2023-12-28T15:58:49;13.20;53.60
9118;DHT22;4594;50.994;7.126;2023-12-28T16:01:14;13.10;53.70
9118;DHT22;4594;50.994;7.126;2023-12-28T16:03:40;13.10;53.70